createdAt,value
2018-12-24T00:01:23.953Z,7.10
2018-12-24T00:03:54.381Z,7.10
2018-12-24T00:06:24.789Z,7.10
2018-12-24T00:08:55.145Z,7.10
2018-12-24T00:11:25.449Z,7.10
2018-12-24T00:13:55.713Z,6.90
2018-12-24T00:16:26.082Z,6.80
2018-12-24T00:18:56.337Z,6.80
2018-12-24T00:21:26.625Z,6.80
2018-12-24T00:23:56.933Z,6.90
2018-12-24T00:26:27.249Z,7.00
2018-12-24T00:28:57.611Z,7.00
2018-12-24T00:31:27.925Z,7.00
2018-12-24T00:33:58.289Z,7.00
2018-12-24T00:36:28.953Z,7.10
2018-12-24T00:38:59.263Z,7.10
2018-12-24T00:41:41.655Z,7.20
2018-12-24T00:44:12.335Z,7.00
2018-12-24T00:46:42.729Z,7.00
2018-12-24T00:49:13.034Z,7.00
2018-12-24T00:51:43.431Z,7.00
2018-12-24T00:54:13.721Z,7.10
2018-12-24T00:56:44.218Z,7.10
2018-12-24T00:59:14.692Z,7.00
2018-12-24T01:01:45.586Z,6.80
2018-12-24T01:04:15.946Z,7.00
2018-12-24T01:06:46.267Z,7.10
2018-12-24T01:09:16.560Z,6.90
2018-12-24T01:11:46.865Z,6.80
2018-12-24T01:14:17.164Z,6.80
2018-12-24T01:16:47.809Z,6.80
2018-12-24T01:19:18.466Z,6.70
2018-12-24T01:21:48.733Z,6.90
2018-12-24T01:24:19.042Z,6.90
2018-12-24T01:26:49.370Z,7.00
2018-12-24T01:29:19.757Z,7.00
2018-12-24T01:31:51.458Z,7.10
2018-12-24T01:34:21.857Z,7.20
2018-12-24T01:36:52.237Z,7.00
2018-12-24T01:39:22.597Z,7.10
2018-12-24T01:41:53.398Z,7.20
2018-12-24T01:44:23.723Z,7.20
2018-12-24T01:46:53.993Z,7.10
2018-12-24T01:49:24.340Z,7.00
2018-12-24T01:51:54.704Z,7.00
2018-12-24T01:54:24.994Z,6.90
2018-12-24T01:56:55.356Z,6.80
2018-12-24T01:59:25.751Z,6.60
2018-12-24T02:01:56.097Z,6.70
2018-12-24T02:04:26.591Z,6.70
2018-12-24T02:06:57.085Z,6.60
2018-12-24T02:09:27.372Z,6.80
2018-12-24T02:11:57.644Z,7.00
2018-12-24T02:14:27.973Z,6.90
2018-12-24T02:16:58.238Z,7.00
2018-12-24T02:19:28.872Z,7.10
2018-12-24T02:21:59.136Z,7.10
2018-12-24T02:24:30.341Z,7.20
2018-12-24T02:27:00.961Z,7.10
2018-12-24T02:29:31.585Z,7.10
2018-12-24T02:32:01.866Z,7.10
2018-12-24T02:34:32.204Z,7.00
2018-12-24T02:37:02.662Z,6.90
2018-12-24T02:39:33.108Z,6.80
2018-12-24T02:42:03.623Z,7.00
2018-12-24T02:44:33.941Z,7.00
2018-12-24T02:47:04.910Z,7.10
2018-12-24T02:49:35.780Z,7.20
2018-12-24T02:52:07.185Z,7.20
2018-12-24T02:54:37.662Z,7.20
2018-12-24T02:57:07.988Z,7.20
2018-12-24T02:59:38.358Z,7.10
2018-12-24T03:02:08.759Z,7.10
2018-12-24T03:04:39.529Z,7.20
2018-12-24T03:09:39.700Z,7.10
2018-12-24T03:12:09.985Z,7.20
2018-12-24T03:14:40.354Z,7.20
2018-12-24T03:17:10.685Z,7.30
2018-12-24T03:19:41.391Z,7.20
2018-12-24T03:22:11.683Z,7.20
2018-12-24T03:24:41.975Z,7.00
2018-12-24T03:27:12.363Z,7.10
2018-12-24T03:29:42.659Z,7.00
2018-12-24T03:39:44.289Z,7.10
2018-12-24T03:42:14.586Z,7.10
2018-12-24T03:44:44.888Z,6.90
2018-12-24T03:47:15.602Z,7.00
2018-12-24T03:49:45.909Z,6.80
2018-12-24T03:52:16.185Z,6.60
2018-12-24T03:54:46.782Z,6.90
2018-12-24T03:57:17.056Z,7.10
2018-12-24T03:59:47.346Z,7.20
2018-12-24T04:02:17.616Z,7.10
2018-12-24T04:04:48.071Z,7.20
2018-12-24T04:07:18.360Z,7.00
2018-12-24T04:09:49.515Z,6.90
2018-12-24T04:12:19.901Z,6.80
2018-12-24T04:14:50.262Z,6.60
2018-12-24T04:17:20.521Z,6.80
2018-12-24T04:19:50.920Z,6.90
2018-12-24T04:22:22.020Z,7.10
2018-12-24T04:24:52.417Z,7.20
2018-12-24T04:27:22.677Z,7.20
2018-12-24T04:29:53.048Z,7.00
2018-12-24T04:32:23.430Z,6.80
2018-12-24T04:34:53.739Z,6.90
2018-12-24T04:37:24.096Z,6.80
2018-12-24T04:39:54.393Z,7.00
2018-12-24T04:42:24.777Z,7.10
2018-12-24T04:44:55.755Z,7.20
2018-12-24T04:47:26.051Z,7.10
2018-12-24T04:49:56.410Z,7.20
2018-12-24T04:52:27.074Z,7.10
2018-12-24T04:54:57.439Z,7.20
2018-12-24T04:57:28.112Z,7.10
2018-12-24T04:59:58.992Z,7.20
2018-12-24T05:02:29.689Z,7.20
2018-12-24T05:05:00.183Z,7.30
2018-12-24T05:07:30.449Z,7.30
2018-12-24T05:10:00.786Z,7.00
2018-12-24T05:12:31.187Z,7.00
2018-12-24T05:15:01.557Z,7.00
2018-12-24T05:17:31.852Z,7.00
2018-12-24T05:20:02.315Z,7.00
2018-12-24T05:22:32.577Z,7.00
2018-12-24T05:25:02.957Z,7.10
2018-12-24T05:27:33.362Z,6.90
2018-12-24T05:30:03.763Z,7.10
2018-12-24T05:32:34.146Z,7.10
2018-12-24T05:35:04.470Z,7.30
2018-12-24T05:37:34.851Z,7.10
2018-12-24T05:40:06.421Z,7.10
2018-12-24T05:42:36.829Z,7.20
2018-12-24T05:45:07.214Z,7.30
2018-12-24T05:47:37.990Z,7.20
2018-12-24T05:50:08.363Z,7.20
2018-12-24T05:52:38.625Z,6.90
2018-12-24T05:55:08.918Z,7.00
2018-12-24T05:57:39.203Z,7.00
2018-12-24T06:00:09.578Z,7.00
2018-12-24T06:02:40.221Z,7.00
2018-12-24T06:05:10.890Z,7.00
2018-12-24T06:07:41.182Z,6.60
2018-12-24T06:10:11.580Z,6.40
2018-12-24T06:12:42.841Z,6.20
2018-12-24T06:15:13.144Z,6.30
2018-12-24T06:17:43.835Z,6.10
2018-12-24T06:20:14.241Z,6.00
2018-12-24T06:22:45.529Z,5.80
2018-12-24T06:25:16.033Z,5.80
2018-12-24T06:27:46.412Z,5.70
2018-12-24T06:30:16.684Z,5.80
2018-12-24T06:32:48.326Z,5.80
2018-12-24T06:35:18.670Z,5.80
2018-12-24T06:37:48.943Z,5.80
2018-12-24T06:40:19.231Z,5.60
2018-12-24T06:42:49.833Z,5.70
2018-12-24T06:45:20.693Z,5.90
2018-12-24T06:47:50.977Z,6.10
2018-12-24T06:50:21.366Z,5.80
2018-12-24T06:53:02.132Z,5.80
2018-12-24T06:55:36.438Z,5.80
2018-12-24T06:58:14.645Z,5.50
2018-12-24T07:00:45.102Z,5.60
2018-12-24T07:03:16.841Z,5.50
2018-12-24T07:05:47.362Z,5.50
2018-12-24T07:08:18.197Z,5.60
2018-12-24T07:10:48.831Z,5.50
2018-12-24T07:13:22.937Z,5.50
2018-12-24T07:15:54.123Z,5.50
2018-12-24T07:18:25.269Z,5.50
2018-12-24T07:20:56.120Z,5.40
2018-12-24T07:23:28.253Z,5.40
2018-12-24T07:25:59.639Z,5.40
2018-12-24T07:28:30.013Z,5.60
2018-12-24T07:31:00.401Z,5.70
2018-12-24T07:33:30.823Z,5.80
2018-12-24T07:36:01.207Z,5.80
2018-12-24T07:38:32.031Z,5.80
2018-12-24T07:41:02.421Z,5.80
2018-12-24T07:43:32.821Z,6.00
2018-12-24T07:46:03.235Z,6.00
2018-12-24T07:48:33.705Z,5.90
2018-12-24T07:51:04.158Z,5.90
2018-12-24T07:53:35.345Z,5.90
2018-12-24T07:56:05.927Z,5.80
2018-12-24T07:58:39.573Z,5.60
2018-12-24T08:01:11.766Z,5.60
2018-12-24T08:03:42.130Z,5.70
2018-12-24T08:06:12.576Z,5.80
2018-12-24T08:08:42.842Z,5.60
2018-12-24T08:11:13.554Z,5.50
2018-12-24T08:13:44.026Z,5.60
2018-12-24T08:16:14.914Z,5.50
2018-12-24T08:18:45.426Z,5.60
2018-12-24T08:21:16.045Z,5.60
2018-12-24T08:23:46.588Z,5.50
2018-12-24T08:26:16.906Z,5.50
2018-12-24T08:28:47.669Z,5.50
2018-12-24T08:31:18.056Z,5.40
2018-12-24T08:33:48.405Z,5.20
2018-12-24T08:36:19.371Z,5.30
2018-12-24T08:38:50.072Z,5.30
2018-12-24T08:41:21.827Z,5.40
2018-12-24T08:43:52.473Z,5.60
2018-12-24T08:46:22.780Z,5.80
2018-12-24T08:48:53.166Z,5.80
2018-12-24T08:51:23.561Z,5.70
2018-12-24T08:53:54.349Z,5.60
2018-12-24T08:56:24.658Z,5.60
2018-12-24T08:58:54.938Z,5.50
2018-12-24T09:01:25.313Z,5.40
2018-12-24T09:03:55.627Z,5.30
2018-12-24T09:06:25.948Z,5.30
2018-12-24T09:08:56.252Z,5.40
2018-12-24T09:11:26.938Z,5.50
2018-12-24T09:13:58.062Z,5.70
2018-12-24T09:16:28.379Z,5.80
2018-12-24T09:18:59.083Z,5.70
2018-12-24T09:21:29.538Z,5.30
2018-12-24T09:23:59.825Z,5.10
2018-12-24T09:26:31.250Z,5.30
2018-12-24T09:29:01.604Z,5.10
2018-12-24T09:31:33.001Z,5.30
2018-12-24T09:34:37.123Z,5.20
2018-12-24T09:37:06.982Z,5.20
2018-12-24T09:39:36.862Z,5.30
2018-12-24T09:42:06.853Z,5.50
2018-12-24T09:44:37.701Z,5.60
2018-12-24T09:47:07.600Z,5.80
2018-12-24T09:49:37.452Z,6.00
2018-12-24T09:52:07.429Z,6.20
2018-12-24T09:54:37.410Z,6.00
2018-12-24T09:57:07.327Z,5.90
2018-12-24T09:59:37.242Z,5.90
2018-12-24T10:02:07.174Z,5.90
2018-12-24T10:04:46.400Z,6.20
2018-12-24T10:07:44.391Z,6.40
2018-12-24T10:10:17.095Z,6.70
2018-12-24T10:12:47.343Z,6.80
2018-12-24T10:15:17.273Z,6.80
2018-12-24T10:17:47.213Z,7.10
2018-12-24T10:20:17.205Z,7.30
2018-12-24T10:22:47.138Z,7.30
2018-12-24T10:25:16.999Z,7.30
2018-12-24T10:27:46.861Z,6.90
2018-12-24T10:30:17.679Z,6.70
2018-12-24T10:32:47.794Z,6.30
2018-12-24T10:35:17.707Z,6.30
2018-12-24T10:37:48.681Z,6.20
2018-12-24T10:40:19.183Z,6.20
2018-12-24T10:42:49.269Z,6.20
2018-12-24T10:45:19.113Z,6.20
2018-12-24T10:47:50.246Z,6.40
2018-12-24T10:50:20.088Z,6.40
2018-12-24T10:52:50.152Z,6.30
2018-12-24T10:55:20.647Z,6.20
2018-12-24T10:57:52.790Z,6.10
2018-12-24T11:00:22.773Z,6.20
2018-12-24T11:02:52.832Z,5.80
2018-12-24T11:05:22.994Z,5.80
2018-12-24T11:07:52.947Z,5.80
2018-12-24T11:10:22.980Z,5.90
2018-12-24T11:12:52.894Z,5.80
2018-12-24T11:15:25.241Z,6.00
2018-12-24T11:17:54.871Z,5.90
2018-12-24T11:20:24.714Z,5.60
2018-12-24T11:22:54.618Z,5.50
2018-12-24T11:25:24.456Z,5.50
2018-12-24T11:27:55.173Z,5.60
2018-12-24T11:30:25.026Z,5.80
2018-12-24T11:32:54.961Z,5.80
2018-12-24T11:35:26.583Z,5.80
2018-12-24T11:37:57.404Z,5.40
2018-12-24T11:40:27.862Z,5.70
2018-12-24T11:42:57.716Z,5.70
2018-12-24T11:45:33.714Z,5.60
2018-12-24T11:47:59.521Z,5.50
2018-12-24T11:50:29.744Z,5.20
2018-12-24T11:53:00.149Z,5.30
2018-12-24T11:55:30.002Z,5.10
2018-12-24T11:57:59.969Z,4.70
2018-12-24T12:00:30.139Z,4.70
2018-12-24T12:03:00.157Z,4.90
2018-12-24T12:05:30.679Z,5.00
2018-12-24T12:08:00.528Z,4.90
2018-12-24T12:10:30.398Z,4.70
2018-12-24T12:13:00.235Z,4.70
2018-12-24T12:15:30.112Z,4.70
2018-12-24T12:18:00.029Z,4.90
2018-12-24T12:20:30.520Z,4.90
2018-12-24T12:23:00.729Z,5.00
2018-12-24T12:25:30.715Z,5.20
2018-12-24T12:28:00.581Z,5.20
2018-12-24T12:30:30.433Z,5.40
2018-12-24T12:33:00.568Z,5.50
2018-12-24T12:35:30.465Z,5.70
2018-12-24T12:38:00.308Z,5.60
2018-12-24T12:40:30.182Z,5.50
2018-12-24T12:43:00.130Z,5.30
2018-12-24T12:45:30.137Z,5.10
2018-12-24T12:48:00.080Z,5.30
2018-12-24T12:50:30.020Z,5.50
2018-12-24T12:53:00.181Z,5.30
2018-12-24T12:55:30.087Z,5.10
2018-12-24T12:58:00.009Z,5.20
2018-12-24T13:00:29.888Z,5.30
2018-12-24T13:02:59.747Z,5.50
2018-12-24T13:05:29.593Z,5.60
2018-12-24T13:07:59.424Z,5.70
2018-12-24T13:10:29.540Z,5.70
2018-12-24T13:12:59.792Z,5.50
2018-12-24T13:15:29.640Z,5.40
2018-12-24T13:17:59.611Z,5.40
2018-12-24T13:20:29.529Z,5.40
2018-12-24T13:22:59.453Z,5.30
2018-12-24T13:25:29.485Z,5.10
2018-12-24T13:27:59.352Z,4.90
2018-12-24T13:30:29.322Z,4.90
2018-12-24T13:32:59.517Z,4.90
2018-12-24T13:35:29.528Z,5.20
2018-12-24T13:37:59.503Z,5.30
2018-12-24T13:40:29.482Z,5.50
2018-12-24T13:42:59.636Z,5.40
2018-12-24T13:45:29.493Z,5.50
2018-12-24T13:47:59.624Z,5.40
2018-12-24T13:50:29.494Z,5.20
2018-12-24T13:52:59.396Z,5.30
2018-12-24T13:55:29.234Z,5.30
2018-12-24T13:57:59.326Z,5.20
2018-12-24T14:00:29.663Z,5.10
2018-12-24T14:02:59.599Z,5.00
2018-12-24T14:05:30.120Z,4.90
2018-12-24T14:07:59.973Z,4.70
2018-12-24T14:10:29.826Z,4.50
2018-12-24T14:12:59.776Z,4.50
2018-12-24T14:15:29.614Z,4.50
2018-12-24T14:18:00.175Z,4.40
2018-12-24T14:20:30.014Z,4.50
2018-12-24T14:22:59.893Z,4.60
2018-12-24T14:25:29.742Z,4.60
2018-12-24T14:28:02.035Z,4.70
2018-12-24T14:30:32.096Z,4.70
2018-12-24T14:33:02.042Z,4.70
2018-12-24T14:35:32.869Z,4.70
2018-12-24T14:38:02.763Z,4.60
2018-12-24T14:40:32.877Z,4.70
2018-12-24T14:43:02.831Z,4.80
2018-12-24T14:45:32.665Z,4.80
2018-12-24T14:48:02.881Z,4.80
2018-12-24T14:50:33.113Z,4.80
2018-12-24T14:53:03.138Z,4.70
2018-12-24T14:55:33.101Z,4.80
2018-12-24T14:58:03.181Z,4.70
2018-12-24T15:00:33.401Z,4.90
2018-12-24T15:03:03.659Z,4.90
2018-12-24T15:05:33.568Z,4.70
2018-12-24T15:08:03.877Z,4.80
2018-12-24T15:10:33.715Z,4.50
2018-12-24T15:13:03.932Z,4.10
2018-12-24T15:15:33.817Z,3.70
2018-12-24T15:18:03.711Z,3.70
2018-12-24T15:20:33.533Z,3.80
2018-12-24T15:23:03.492Z,3.60
2018-12-24T15:25:33.789Z,3.50
2018-12-24T15:28:04.064Z,3.50
2018-12-24T15:30:34.640Z,3.70
2018-12-24T15:33:04.577Z,3.60
2018-12-24T15:35:34.697Z,3.60
2018-12-24T15:38:04.639Z,3.60
2018-12-24T15:40:34.567Z,3.50
2018-12-24T15:43:04.638Z,3.60
2018-12-24T15:45:34.524Z,3.80
2018-12-24T15:48:04.392Z,3.80
2018-12-24T15:50:34.985Z,3.50
2018-12-24T15:53:05.261Z,3.70
2018-12-24T15:55:35.256Z,3.70
2018-12-24T15:58:05.152Z,3.90
2018-12-24T16:00:35.559Z,3.70
2018-12-24T16:03:05.908Z,3.80
2018-12-24T16:05:35.784Z,3.90
2018-12-24T16:08:05.701Z,3.90
2018-12-24T16:10:36.180Z,4.00
2018-12-24T16:13:06.039Z,4.00
2018-12-24T16:15:35.973Z,4.00
2018-12-24T16:18:05.816Z,3.80
2018-12-24T16:20:35.754Z,3.90
2018-12-24T16:23:06.070Z,3.70
2018-12-24T16:25:35.951Z,3.70
2018-12-24T16:28:05.860Z,3.80
2018-12-24T16:30:35.828Z,3.80
2018-12-24T16:33:05.789Z,3.80
2018-12-24T16:35:35.665Z,4.00
2018-12-24T16:38:05.880Z,4.00
2018-12-24T16:40:36.073Z,4.00
2018-12-24T16:43:06.042Z,3.90
2018-12-24T16:45:36.386Z,3.80
2018-12-24T16:48:06.858Z,3.90
2018-12-24T16:50:36.715Z,3.80
2018-12-24T16:53:06.589Z,3.90
2018-12-24T16:55:36.633Z,3.80
2018-12-24T16:58:06.647Z,3.90
2018-12-24T17:00:36.870Z,3.90
2018-12-24T17:03:07.209Z,3.90
2018-12-24T17:05:37.095Z,3.80
2018-12-24T17:08:07.017Z,3.70
2018-12-24T17:10:37.631Z,3.70
2018-12-24T17:13:07.467Z,3.90
2018-12-24T17:15:37.372Z,3.90
2018-12-24T17:18:07.213Z,4.00
2018-12-24T17:20:37.214Z,4.00
2018-12-24T17:23:07.192Z,4.10
2018-12-24T17:25:37.154Z,4.00
2018-12-24T17:28:07.024Z,3.90
2018-12-24T17:30:37.376Z,4.00
2018-12-24T17:33:07.225Z,4.20
2018-12-24T17:35:37.508Z,4.20
2018-12-24T17:38:07.425Z,4.60
2018-12-24T17:40:37.593Z,4.40
2018-12-24T17:43:08.446Z,4.50
2018-12-24T17:45:38.375Z,4.30
2018-12-24T17:48:14.415Z,4.40
2018-12-24T17:50:44.296Z,4.40
2018-12-24T17:53:14.146Z,4.30
2018-12-24T17:55:44.714Z,3.90
2018-12-24T17:58:14.576Z,4.00
2018-12-24T18:00:44.654Z,3.90
2018-12-24T18:03:14.524Z,3.90
2018-12-24T18:05:44.375Z,4.10
2018-12-24T18:08:14.301Z,4.00
2018-12-24T18:10:44.237Z,3.80
2018-12-24T18:13:14.150Z,3.90
2018-12-24T18:15:47.047Z,4.00
2018-12-24T18:18:16.978Z,3.60
2018-12-24T18:20:46.929Z,3.80
2018-12-24T18:23:16.768Z,3.70
2018-12-24T18:25:46.647Z,3.80
2018-12-24T18:28:16.652Z,3.90
2018-12-24T18:30:46.561Z,3.90
2018-12-24T18:33:16.750Z,3.80
2018-12-24T18:35:46.614Z,4.00
2018-12-24T18:38:16.840Z,4.10
2018-12-24T18:40:47.056Z,4.10
2018-12-24T18:43:16.920Z,4.40
2018-12-24T18:45:46.801Z,4.10
2018-12-24T18:48:16.749Z,4.10
2018-12-24T18:50:47.053Z,4.10
2018-12-24T18:53:17.587Z,4.20
2018-12-24T18:55:47.503Z,4.20
2018-12-24T18:58:17.530Z,4.60
2018-12-24T19:00:47.405Z,4.70
2018-12-24T19:03:17.624Z,4.80
2018-12-24T19:05:47.672Z,4.70
2018-12-24T19:08:17.708Z,4.60
2018-12-24T19:10:47.572Z,4.80
2018-12-24T19:13:17.438Z,4.80
2018-12-24T19:15:47.652Z,4.70
2018-12-24T19:18:17.528Z,4.30
2018-12-24T19:20:48.725Z,4.80
2018-12-24T19:23:18.698Z,5.00
2018-12-24T19:25:48.703Z,4.90
2018-12-24T19:28:19.391Z,4.90
2018-12-24T19:30:49.253Z,5.00
2018-12-24T19:33:19.482Z,4.80
2018-12-24T19:35:49.396Z,4.80
2018-12-24T19:38:19.693Z,4.50
2018-12-24T19:40:49.643Z,4.70
2018-12-24T19:43:19.545Z,4.70
2018-12-24T19:45:49.381Z,5.00
2018-12-24T19:48:19.253Z,5.30
2018-12-24T19:50:49.182Z,5.20
2018-12-24T19:53:19.056Z,4.90
2018-12-24T19:55:48.998Z,4.90
2018-12-24T19:58:18.945Z,4.40
2018-12-24T20:00:49.067Z,4.30
2018-12-24T20:03:19.444Z,4.30
2018-12-24T20:05:49.278Z,4.40
2018-12-24T20:08:19.364Z,4.40
2018-12-24T20:10:49.999Z,4.30
2018-12-24T20:13:24.006Z,4.80
2018-12-24T20:15:54.767Z,4.90
2018-12-24T20:18:24.692Z,5.10
2018-12-24T20:20:56.049Z,5.30
2018-12-24T20:23:32.399Z,5.10
2018-12-24T20:26:02.653Z,5.00
2018-12-24T20:28:32.714Z,4.90
2018-12-24T20:31:04.629Z,4.90
2018-12-24T20:33:34.584Z,5.10
2018-12-24T20:36:05.312Z,5.20
2018-12-24T20:38:37.124Z,5.40
2018-12-24T20:41:07.313Z,5.30
2018-12-24T20:43:37.216Z,5.40
2018-12-24T20:46:07.089Z,5.40
2018-12-24T20:48:39.384Z,5.20
2018-12-24T20:51:16.113Z,5.10
2018-12-24T20:53:40.835Z,4.90
2018-12-24T20:56:14.363Z,4.80
2018-12-24T20:58:44.385Z,4.70
2018-12-24T21:01:14.350Z,4.70
2018-12-24T21:03:44.223Z,4.60
2018-12-24T21:06:14.411Z,4.50
2018-12-24T21:08:44.289Z,4.70
2018-12-24T21:11:14.136Z,4.60
2018-12-24T21:13:44.864Z,4.60
2018-12-24T21:16:14.835Z,4.30
2018-12-24T21:18:44.766Z,3.90
2018-12-24T21:21:14.693Z,4.10
2018-12-24T21:23:44.956Z,4.20
2018-12-24T21:26:15.193Z,4.20
2018-12-24T21:28:45.204Z,4.30
2018-12-24T21:31:15.057Z,4.30
2018-12-24T21:33:44.913Z,4.40
2018-12-24T21:36:15.144Z,4.50
2018-12-24T21:38:45.018Z,4.60
2018-12-24T21:41:14.956Z,4.60
2018-12-24T21:43:44.819Z,4.70
2018-12-24T21:46:14.681Z,4.70
2018-12-24T21:48:44.537Z,4.70
2018-12-24T21:51:14.427Z,4.60
2018-12-24T21:53:44.285Z,4.70
2018-12-24T21:56:14.485Z,4.50
2018-12-24T21:58:44.321Z,4.50
2018-12-24T22:01:14.455Z,4.60
2018-12-24T22:03:44.315Z,4.70
2018-12-24T22:06:14.277Z,4.70
2018-12-24T22:08:44.262Z,4.70
2018-12-24T22:11:14.143Z,4.70
2018-12-24T22:13:44.321Z,4.70
2018-12-24T22:16:14.302Z,4.90
2018-12-24T22:18:44.163Z,4.90
2018-12-24T22:21:14.044Z,4.90
2018-12-24T22:23:43.926Z,4.90
2018-12-24T22:26:14.197Z,4.90
2018-12-24T22:28:44.056Z,4.90
2018-12-24T22:31:13.939Z,4.70
2018-12-24T22:33:43.798Z,4.90
2018-12-24T22:36:13.710Z,4.90
2018-12-24T22:38:43.844Z,4.90
2018-12-24T22:41:13.780Z,5.00
2018-12-24T22:43:43.704Z,5.00
2018-12-24T22:46:13.965Z,4.90
2018-12-24T22:48:43.820Z,4.70
2018-12-24T22:51:13.677Z,4.70
2018-12-24T22:53:43.520Z,4.70
2018-12-24T22:56:13.792Z,4.70
2018-12-24T22:58:43.636Z,4.90
2018-12-24T23:01:13.506Z,4.70
2018-12-24T23:03:43.410Z,4.70
2018-12-24T23:06:13.408Z,4.70
2018-12-24T23:08:43.259Z,4.70
2018-12-24T23:11:13.152Z,4.70
2018-12-24T23:13:43.157Z,4.90
2018-12-24T23:16:13.777Z,4.90
2018-12-24T23:18:49.336Z,5.00
2018-12-24T23:21:15.676Z,5.10
2018-12-24T23:23:45.513Z,5.10
2018-12-24T23:26:15.413Z,5.20
2018-12-24T23:28:45.298Z,5.10
2018-12-24T23:31:15.173Z,5.00
2018-12-24T23:33:45.397Z,5.00
2018-12-24T23:36:15.511Z,5.00
2018-12-24T23:38:45.433Z,4.90
2018-12-24T23:41:15.391Z,5.00
2018-12-24T23:43:45.707Z,5.00
2018-12-24T23:46:15.742Z,5.00
2018-12-24T23:48:48.119Z,5.00
2018-12-24T23:51:18.128Z,4.90
2018-12-24T23:53:48.073Z,4.80
2018-12-24T23:56:17.928Z,4.70
2018-12-24T23:58:47.880Z,4.60
